Main page
METAR-TAF:

METAR-TAF

Airports :

Smithers Airport

Smithers, British Columbia, Canada

latitude: 54-49N, longitude: 127-11W, elevation: 523 m

Current weather observation

The report was made 1 hour and 3 minutes ago, at 02:00 UTC
Wind 16 kt from the North/Northwest with gusts up to 22 kt
Temperature 19°C
Humidity 37%
Pressure 1008 hPa
Visibility: 40.2 km
Scattered clouds at a height of 6000 ft

METAR: CYYD 240200Z 33016G22KT 25SM SCT060 19/04 A2977 RMK SC4 SLP086 DENSITY ALT 2800FT

Time: 20:03 (03:03 UTC)

Forecast

The report was made 59 minutes ago, at 02:04 UTC
Forecast valid from 24 at 02 UTC to 24 at 06 UTC
Wind 12 kt from the North/Northwest with gusts up to 22 kt
Visibility: 10 km
Broken clouds at a height of 6000 ft
Temporary
from 24 at 02 UTC to 24 at 06 UTC
Visibility: 10 km
light rain showers

TAF: CYYD 240204Z 2402/2406 33012G22KT P6SM BKN060 TEMPO 2402/2406 P6SM -SHRA RMK NXT FCST BY 241400Z

Weather observations and forecasts of more than 4000 airports (METAR and TAF reports).

The available stations are represented by yellow and red dots on the map.

Hover mouse over dot to see the name of the station.

Then click to see weather observations and forecasts.

To change the map : click on the green buttons with a black cross to zoom in, on the green button with a dash to zoom out, or on the green arrows for adjacent maps.


METAR-TAF: